sensor_id;sensor_type;location;lat;lon;timestamp;P1;durP1;ratioP1;P2;durP2;ratioP2
32788;SDS011;19141;48.980;8.410;2022-08-19T04:22:35;28.17;;;13.88;;
32788;SDS011;19141;48.980;8.410;2022-08-19T04:25:00;27.42;;;14.10;;
32788;SDS011;19141;48.980;8.410;2022-08-19T04:27:25;26.67;;;13.55;;
32788;SDS011;19141;48.980;8.410;2022-08-19T04:29:51;30.50;;;14.70;;
32788;SDS011;19141;48.980;8.410;2022-08-19T04:32:17;27.92;;;13.95;;
32788;SDS011;19141;48.980;8.410;2022-08-19T04:34:42;36.17;;;14.35;;
32788;SDS011;19141;48.980;8.410;2022-08-19T04:37:08;26.13;;;13.27;;
32788;SDS011;19141;48.980;8.410;2022-08-19T04:39:38;26.70;;;14.10;;
32788;SDS011;19141;48.980;8.410;2022-08-19T04:42:22;26.25;;;14.15;;
32788;SDS011;19141;48.980;8.410;2022-08-19T04:45:07;28.13;;;13.25;;
32788;SDS011;19141;48.980;8.410;2022-08-19T04:47:38;31.88;;;15.32;;
32788;SDS011;19141;48.980;8.410;2022-08-19T04:50:06;31.42;;;13.95;;
32788;SDS011;19141;48.980;8.410;2022-08-19T04:52:33;25.98;;;13.10;;
32788;SDS011;19141;48.980;8.410;2022-08-19T04:54:58;28.23;;;13.98;;
32788;SDS011;19141;48.980;8.410;2022-08-19T04:57:24;27.20;;;14.25;;
32788;SDS011;19141;48.980;8.410;2022-08-19T04:59:53;29.38;;;14.05;;
32788;SDS011;19141;48.980;8.410;2022-08-19T05:02:20;28.45;;;14.15;;
32788;SDS011;19141;48.980;8.410;2022-08-19T05:04:45;29.40;;;14.52;;
32788;SDS011;19141;48.980;8.410;2022-08-19T05:07:10;30.00;;;13.85;;
32788;SDS011;19141;48.980;8.410;2022-08-19T05:09:36;28.73;;;13.88;;
32788;SDS011;19141;48.980;8.410;2022-08-19T05:12:03;31.17;;;14.55;;
32788;SDS011;19141;48.980;8.410;2022-08-19T05:14:28;30.10;;;13.82;;
32788;SDS011;19141;48.980;8.410;2022-08-19T05:16:54;28.10;;;13.98;;
32788;SDS011;19141;48.980;8.410;2022-08-19T05:19:19;30.20;;;14.75;;
32788;SDS011;19141;48.980;8.410;2022-08-19T05:22:03;31.40;;;14.55;;
32788;SDS011;19141;48.980;8.410;2022-08-19T05:24:47;25.67;;;13.88;;
32788;SDS011;19141;48.980;8.410;2022-08-19T05:27:12;29.92;;;13.63;;
32788;SDS011;19141;48.980;8.410;2022-08-19T05:29:38;33.17;;;14.95;;
32788;SDS011;19141;48.980;8.410;2022-08-19T05:32:04;31.33;;;14.55;;
32788;SDS011;19141;48.980;8.410;2022-08-19T05:34:33;31.85;;;14.68;;
32788;SDS011;19141;48.980;8.410;2022-08-19T05:37:01;30.60;;;14.02;;
32788;SDS011;19141;48.980;8.410;2022-08-19T05:39:28;34.13;;;14.90;;
32788;SDS011;19141;48.980;8.410;2022-08-19T05:41:57;30.48;;;15.18;;
32788;SDS011;19141;48.980;8.410;2022-08-19T05:44:25;27.52;;;13.48;;
32788;SDS011;19141;48.980;8.410;2022-08-19T05:46:52;26.45;;;13.63;;
32788;SDS011;19141;48.980;8.410;2022-08-19T05:49:18;28.80;;;14.15;;
32788;SDS011;19141;48.980;8.410;2022-08-19T05:51:46;33.28;;;14.85;;
32788;SDS011;19141;48.980;8.410;2022-08-19T05:54:12;33.88;;;13.43;;
32788;SDS011;19141;48.980;8.410;2022-08-19T05:56:39;32.58;;;13.77;;
32788;SDS011;19141;48.980;8.410;2022-08-19T05:59:05;30.30;;;14.13;;
32788;SDS011;19141;48.980;8.410;2022-08-19T06:01:39;29.42;;;13.40;;
32788;SDS011;19141;48.980;8.410;2022-08-19T06:04:06;28.30;;;12.95;;
32788;SDS011;19141;48.980;8.410;2022-08-19T06:06:32;27.77;;;14.55;;
32788;SDS011;19141;48.980;8.410;2022-08-19T06:09:00;25.40;;;14.00;;
32788;SDS011;19141;48.980;8.410;2022-08-19T06:11:34;34.00;;;15.25;;
32788;SDS011;19141;48.980;8.410;2022-08-19T06:14:00;31.05;;;13.60;;
32788;SDS011;19141;48.980;8.410;2022-08-19T06:16:28;29.77;;;13.60;;
32788;SDS011;19141;48.980;8.410;2022-08-19T06:18:59;28.15;;;13.35;;
32788;SDS011;19141;48.980;8.410;2022-08-19T06:21:27;31.15;;;13.48;;
32788;SDS011;19141;48.980;8.410;2022-08-19T06:23:54;31.00;;;13.93;;
32788;SDS011;19141;48.980;8.410;2022-08-19T06:26:21;26.80;;;12.68;;
32788;SDS011;19141;48.980;8.410;2022-08-19T06:28:48;26.42;;;12.13;;
32788;SDS011;19141;48.980;8.410;2022-08-19T06:31:17;25.85;;;12.23;;
32788;SDS011;19141;48.980;8.410;2022-08-19T06:33:45;27.20;;;13.27;;
32788;SDS011;19141;48.980;8.410;2022-08-19T06:36:19;27.90;;;12.60;;
32788;SDS011;19141;48.980;8.410;2022-08-19T06:38:46;24.25;;;11.70;;
32788;SDS011;19141;48.980;8.410;2022-08-19T06:41:11;27.27;;;13.05;;
32788;SDS011;19141;48.980;8.410;2022-08-19T06:43:37;28.33;;;13.70;;
32788;SDS011;19141;48.980;8.410;2022-08-19T06:46:02;27.05;;;12.00;;
32788;SDS011;19141;48.980;8.410;2022-08-19T06:48:29;23.73;;;12.80;;
32788;SDS011;19141;48.980;8.410;2022-08-19T06:50:55;23.05;;;12.70;;
32788;SDS011;19141;48.980;8.410;2022-08-19T06:53:21;27.00;;;12.73;;
32788;SDS011;19141;48.980;8.410;2022-08-19T06:55:46;24.30;;;12.35;;
32788;SDS011;19141;48.980;8.410;2022-08-19T06:58:12;25.77;;;11.85;;
32788;SDS011;19141;48.980;8.410;2022-08-19T07:00:38;25.67;;;12.02;;
32788;SDS011;19141;48.980;8.410;2022-08-19T07:03:03;26.15;;;12.75;;
32788;SDS011;19141;48.980;8.410;2022-08-19T07:05:29;26.05;;;13.07;;
32788;SDS011;19141;48.980;8.410;2022-08-19T07:07:54;23.38;;;12.98;;
32788;SDS011;19141;48.980;8.410;2022-08-19T07:10:19;28.27;;;13.38;;
32788;SDS011;19141;48.980;8.410;2022-08-19T07:12:46;26.60;;;12.48;;
32788;SDS011;19141;48.980;8.410;2022-08-19T07:15:12;22.20;;;11.18;;
32788;SDS011;19141;48.980;8.410;2022-08-19T07:17:37;20.00;;;10.45;;
32788;SDS011;19141;48.980;8.410;2022-08-19T07:20:04;22.73;;;12.05;;
32788;SDS011;19141;48.980;8.410;2022-08-19T07:22:32;25.35;;;12.13;;
32788;SDS011;19141;48.980;8.410;2022-08-19T07:24:59;22.30;;;11.63;;
32788;SDS011;19141;48.980;8.410;2022-08-19T07:27:25;23.27;;;10.85;;
32788;SDS011;19141;48.980;8.410;2022-08-19T07:29:51;21.67;;;11.00;;
32788;SDS011;19141;48.980;8.410;2022-08-19T07:32:18;25.58;;;12.25;;
32788;SDS011;19141;48.980;8.410;2022-08-19T07:34:43;21.27;;;10.88;;
32788;SDS011;19141;48.980;8.410;2022-08-19T07:37:10;23.67;;;11.38;;
32788;SDS011;19141;48.980;8.410;2022-08-19T07:39:36;24.92;;;12.18;;
32788;SDS011;19141;48.980;8.410;2022-08-19T07:42:05;24.73;;;11.98;;
32788;SDS011;19141;48.980;8.410;2022-08-19T07:44:34;21.38;;;11.23;;
32788;SDS011;19141;48.980;8.410;2022-08-19T07:47:00;23.23;;;10.73;;
32788;SDS011;19141;48.980;8.410;2022-08-19T07:49:26;20.80;;;10.63;;
32788;SDS011;19141;48.980;8.410;2022-08-19T07:51:53;18.58;;;11.20;;
32788;SDS011;19141;48.980;8.410;2022-08-19T07:54:21;20.20;;;10.43;;
32788;SDS011;19141;48.980;8.410;2022-08-19T07:56:48;19.67;;;9.18;;
32788;SDS011;19141;48.980;8.410;2022-08-19T07:59:16;17.65;;;9.63;;
32788;SDS011;19141;48.980;8.410;2022-08-19T08:01:42;17.13;;;9.70;;
32788;SDS011;19141;48.980;8.410;2022-08-19T08:04:09;19.58;;;10.20;;
32788;SDS011;19141;48.980;8.410;2022-08-19T08:06:53;17.75;;;10.00;;
32788;SDS011;19141;48.980;8.410;2022-08-19T08:09:39;17.85;;;10.07;;
32788;SDS011;19141;48.980;8.410;2022-08-19T08:12:08;16.98;;;10.02;;
32788;SDS011;19141;48.980;8.410;2022-08-19T08:14:42;20.20;;;9.93;;
32788;SDS011;19141;48.980;8.410;2022-08-19T08:17:19;15.65;;;9.18;;
32788;SDS011;19141;48.980;8.410;2022-08-19T08:22:14;17.00;;;9.23;;
32788;SDS011;19141;48.980;8.410;2022-08-19T08:25:06;17.00;;;9.50;;
32788;SDS011;19141;48.980;8.410;2022-08-19T08:27:40;17.60;;;9.18;;
32788;SDS011;19141;48.980;8.410;2022-08-19T08:30:07;18.05;;;9.00;;
32788;SDS011;19141;48.980;8.410;2022-08-19T08:32:35;16.00;;;8.75;;
32788;SDS011;19141;48.980;8.410;2022-08-19T08:35:03;14.30;;;9.02;;
32788;SDS011;19141;48.980;8.410;2022-08-19T08:37:30;16.95;;;9.55;;
32788;SDS011;19141;48.980;8.410;2022-08-19T08:39:55;15.63;;;8.70;;
32788;SDS011;19141;48.980;8.410;2022-08-19T08:42:27;16.23;;;9.70;;
32788;SDS011;19141;48.980;8.410;2022-08-19T08:44:58;13.80;;;8.52;;
32788;SDS011;19141;48.980;8.410;2022-08-19T08:47:27;14.70;;;8.38;;
32788;SDS011;19141;48.980;8.410;2022-08-19T08:49:59;12.40;;;7.18;;
32788;SDS011;19141;48.980;8.410;2022-08-19T08:52:36;11.30;;;6.88;;
32788;SDS011;19141;48.980;8.410;2022-08-19T08:55:12;11.35;;;7.30;;
32788;SDS011;19141;48.980;8.410;2022-08-19T09:00:20;9.93;;;6.15;;
32788;SDS011;19141;48.980;8.410;2022-08-19T09:02:47;11.35;;;7.07;;
32788;SDS011;19141;48.980;8.410;2022-08-19T09:05:13;11.15;;;6.15;;
32788;SDS011;19141;48.980;8.410;2022-08-19T09:13:12;11.43;;;6.03;;
32788;SDS011;19141;48.980;8.410;2022-08-19T09:15:54;14.65;;;6.03;;
32788;SDS011;19141;48.980;8.410;2022-08-19T09:18:33;10.13;;;5.55;;
32788;SDS011;19141;48.980;8.410;2022-08-19T09:21:15;8.05;;;5.32;;
32788;SDS011;19141;48.980;8.410;2022-08-19T09:23:40;7.05;;;5.13;;
32788;SDS011;19141;48.980;8.410;2022-08-19T09:26:09;9.02;;;5.13;;
32788;SDS011;19141;48.980;8.410;2022-08-19T09:28:40;7.70;;;4.95;;
32788;SDS011;19141;48.980;8.410;2022-08-19T09:31:41;9.63;;;5.28;;
32788;SDS011;19141;48.980;8.410;2022-08-19T09:34:00;8.50;;;5.65;;
32788;SDS011;19141;48.980;8.410;2022-08-19T09:36:28;7.88;;;5.15;;
32788;SDS011;19141;48.980;8.410;2022-08-19T09:38:55;6.97;;;5.40;;
32788;SDS011;19141;48.980;8.410;2022-08-19T09:41:22;6.05;;;4.40;;
32788;SDS011;19141;48.980;8.410;2022-08-19T09:43:50;6.60;;;4.45;;
32788;SDS011;19141;48.980;8.410;2022-08-19T09:46:17;7.15;;;4.82;;
32788;SDS011;19141;48.980;8.410;2022-08-19T09:48:46;7.20;;;4.28;;
32788;SDS011;19141;48.980;8.410;2022-08-19T09:51:15;6.57;;;4.57;;
32788;SDS011;19141;48.980;8.410;2022-08-19T09:53:44;6.38;;;4.25;;
32788;SDS011;19141;48.980;8.410;2022-08-19T09:56:10;5.80;;;4.32;;
32788;SDS011;19141;48.980;8.410;2022-08-19T10:01:03;6.22;;;4.20;;
32788;SDS011;19141;48.980;8.410;2022-08-19T10:03:30;6.75;;;4.50;;
32788;SDS011;19141;48.980;8.410;2022-08-19T10:05:56;5.88;;;3.92;;
32788;SDS011;19141;48.980;8.410;2022-08-19T10:08:41;5.63;;;4.20;;
32788;SDS011;19141;48.980;8.410;2022-08-19T10:11:07;6.18;;;5.05;;
32788;SDS011;19141;48.980;8.410;2022-08-19T10:13:34;6.95;;;4.57;;
32788;SDS011;19141;48.980;8.410;2022-08-19T10:16:05;4.53;;;3.78;;
32788;SDS011;19141;48.980;8.410;2022-08-19T10:18:33;4.60;;;4.03;;
32788;SDS011;19141;48.980;8.410;2022-08-19T10:21:06;6.45;;;4.78;;
32788;SDS011;19141;48.980;8.410;2022-08-19T10:23:37;5.35;;;3.70;;
32788;SDS011;19141;48.980;8.410;2022-08-19T10:26:06;4.60;;;3.92;;
32788;SDS011;19141;48.980;8.410;2022-08-19T10:28:33;5.28;;;3.80;;
32788;SDS011;19141;48.980;8.410;2022-08-19T10:31:05;4.60;;;3.33;;
32788;SDS011;19141;48.980;8.410;2022-08-19T10:33:32;3.80;;;3.40;;
32788;SDS011;19141;48.980;8.410;2022-08-19T10:35:59;5.53;;;4.10;;
32788;SDS011;19141;48.980;8.410;2022-08-19T10:38:29;3.70;;;3.35;;
32788;SDS011;19141;48.980;8.410;2022-08-19T10:40:56;4.82;;;3.80;;
32788;SDS011;19141;48.980;8.410;2022-08-19T10:43:22;6.25;;;3.35;;
32788;SDS011;19141;48.980;8.410;2022-08-19T10:45:54;4.80;;;3.83;;
32788;SDS011;19141;48.980;8.410;2022-08-19T10:48:24;5.63;;;3.70;;
32788;SDS011;19141;48.980;8.410;2022-08-19T10:50:49;4.13;;;3.72;;
32788;SDS011;19141;48.980;8.410;2022-08-19T10:53:33;5.55;;;3.92;;
32788;SDS011;19141;48.980;8.410;2022-08-19T10:55:59;5.10;;;3.60;;
32788;SDS011;19141;48.980;8.410;2022-08-19T10:58:43;5.20;;;3.70;;
32788;SDS011;19141;48.980;8.410;2022-08-19T11:01:09;4.03;;;3.63;;
32788;SDS011;19141;48.980;8.410;2022-08-19T11:03:35;5.25;;;4.07;;
32788;SDS011;19141;48.980;8.410;2022-08-19T11:06:04;5.07;;;3.70;;
32788;SDS011;19141;48.980;8.410;2022-08-19T11:08:32;5.10;;;4.25;;
32788;SDS011;19141;48.980;8.410;2022-08-19T11:10:59;4.28;;;3.85;;
32788;SDS011;19141;48.980;8.410;2022-08-19T11:13:27;4.90;;;4.05;;
32788;SDS011;19141;48.980;8.410;2022-08-19T11:16:00;4.60;;;4.10;;
32788;SDS011;19141;48.980;8.410;2022-08-19T11:18:28;4.35;;;3.95;;
32788;SDS011;19141;48.980;8.410;2022-08-19T11:20:53;3.97;;;3.58;;
32788;SDS011;19141;48.980;8.410;2022-08-19T11:23:19;7.45;;;3.72;;
32788;SDS011;19141;48.980;8.410;2022-08-19T11:25:44;3.55;;;3.25;;
32788;SDS011;19141;48.980;8.410;2022-08-19T11:28:10;4.00;;;3.60;;
32788;SDS011;19141;48.980;8.410;2022-08-19T11:30:37;4.00;;;3.20;;
32788;SDS011;19141;48.980;8.410;2022-08-19T11:33:03;4.07;;;3.55;;
32788;SDS011;19141;48.980;8.410;2022-08-19T11:35:28;3.53;;;3.23;;
32788;SDS011;19141;48.980;8.410;2022-08-19T11:37:54;4.13;;;3.53;;
32788;SDS011;19141;48.980;8.410;2022-08-19T11:42:46;4.40;;;4.00;;
32788;SDS011;19141;48.980;8.410;2022-08-19T11:45:21;4.22;;;3.83;;
32788;SDS011;19141;48.980;8.410;2022-08-19T11:47:51;4.05;;;3.38;;
32788;SDS011;19141;48.980;8.410;2022-08-19T11:50:16;4.47;;;4.07;;
32788;SDS011;19141;48.980;8.410;2022-08-19T11:52:42;4.68;;;3.67;;
32788;SDS011;19141;48.980;8.410;2022-08-19T11:55:10;4.72;;;3.95;;
32788;SDS011;19141;48.980;8.410;2022-08-19T11:57:36;4.17;;;3.77;;
32788;SDS011;19141;48.980;8.410;2022-08-19T12:00:02;4.07;;;3.67;;
32788;SDS011;19141;48.980;8.410;2022-08-19T12:02:30;3.58;;;3.15;;
32788;SDS011;19141;48.980;8.410;2022-08-19T12:04:55;4.68;;;3.40;;
32788;SDS011;19141;48.980;8.410;2022-08-19T12:07:21;3.70;;;3.40;;
32788;SDS011;19141;48.980;8.410;2022-08-19T12:09:46;3.77;;;3.47;;
32788;SDS011;19141;48.980;8.410;2022-08-19T12:12:12;3.10;;;2.80;;
32788;SDS011;19141;48.980;8.410;2022-08-19T12:14:38;3.67;;;3.33;;
32788;SDS011;19141;48.980;8.410;2022-08-19T12:17:04;5.17;;;3.57;;
32788;SDS011;19141;48.980;8.410;2022-08-19T12:19:32;4.05;;;3.65;;
32788;SDS011;19141;48.980;8.410;2022-08-19T12:22:00;4.03;;;3.63;;
32788;SDS011;19141;48.980;8.410;2022-08-19T12:24:29;3.90;;;3.50;;
32788;SDS011;19141;48.980;8.410;2022-08-19T12:26:57;3.78;;;3.40;;
32788;SDS011;19141;48.980;8.410;2022-08-19T12:29:23;4.30;;;3.42;;
32788;SDS011;19141;48.980;8.410;2022-08-19T12:31:54;4.38;;;3.97;;
32788;SDS011;19141;48.980;8.410;2022-08-19T12:34:26;5.40;;;3.65;;
32788;SDS011;19141;48.980;8.410;2022-08-19T12:36:55;4.78;;;3.70;;
32788;SDS011;19141;48.980;8.410;2022-08-19T12:39:21;3.92;;;3.53;;
32788;SDS011;19141;48.980;8.410;2022-08-19T12:41:47;4.88;;;4.25;;
32788;SDS011;19141;48.980;8.410;2022-08-19T12:44:14;8.77;;;3.78;;
32788;SDS011;19141;48.980;8.410;2022-08-19T12:46:40;4.18;;;3.78;;
32788;SDS011;19141;48.980;8.410;2022-08-19T12:49:05;5.47;;;4.13;;
32788;SDS011;19141;48.980;8.410;2022-08-19T12:51:31;4.53;;;4.13;;
32788;SDS011;19141;48.980;8.410;2022-08-19T12:53:56;3.90;;;3.50;;
32788;SDS011;19141;48.980;8.410;2022-08-19T12:56:22;4.20;;;3.80;;
32788;SDS011;19141;48.980;8.410;2022-08-19T12:58:47;4.30;;;3.45;;
32788;SDS011;19141;48.980;8.410;2022-08-19T13:01:13;4.65;;;3.80;;
32788;SDS011;19141;48.980;8.410;2022-08-19T13:03:41;3.63;;;3.13;;
32788;SDS011;19141;48.980;8.410;2022-08-19T13:06:08;4.20;;;3.40;;
32788;SDS011;19141;48.980;8.410;2022-08-19T13:08:34;3.20;;;2.90;;
32788;SDS011;19141;48.980;8.410;2022-08-19T13:13:57;3.45;;;3.15;;
32788;SDS011;19141;48.980;8.410;2022-08-19T13:16:24;3.22;;;2.92;;
32788;SDS011;19141;48.980;8.410;2022-08-19T13:18:49;3.10;;;2.80;;
32788;SDS011;19141;48.980;8.410;2022-08-19T13:21:19;2.97;;;2.67;;
32788;SDS011;19141;48.980;8.410;2022-08-19T13:23:46;2.88;;;2.58;;
32788;SDS011;19141;48.980;8.410;2022-08-19T13:26:12;3.00;;;2.70;;
32788;SDS011;19141;48.980;8.410;2022-08-19T13:28:38;3.03;;;2.77;;
32788;SDS011;19141;48.980;8.410;2022-08-19T13:31:25;2.83;;;2.63;;
32788;SDS011;19141;48.980;8.410;2022-08-19T13:34:10;2.65;;;2.20;;
32788;SDS011;19141;48.980;8.410;2022-08-19T13:36:36;2.20;;;1.90;;
32788;SDS011;19141;48.980;8.410;2022-08-19T13:39:02;2.42;;;2.22;;
32788;SDS011;19141;48.980;8.410;2022-08-19T13:43:54;2.13;;;1.83;;
32788;SDS011;19141;48.980;8.410;2022-08-19T13:46:20;2.60;;;2.10;;
32788;SDS011;19141;48.980;8.410;2022-08-19T13:48:45;2.00;;;1.80;;
32788;SDS011;19141;48.980;8.410;2022-08-19T13:51:13;2.13;;;1.92;;
32788;SDS011;19141;48.980;8.410;2022-08-19T13:53:41;1.80;;;1.58;;
32788;SDS011;19141;48.980;8.410;2022-08-19T13:56:08;1.83;;;1.67;;
32788;SDS011;19141;48.980;8.410;2022-08-19T13:58:36;1.73;;;1.63;;
32788;SDS011;19141;48.980;8.410;2022-08-19T14:01:02;3.08;;;1.70;;
32788;SDS011;19141;48.980;8.410;2022-08-19T14:03:28;2.00;;;1.80;;
32788;SDS011;19141;48.980;8.410;2022-08-19T14:05:54;2.10;;;1.90;;
32788;SDS011;19141;48.980;8.410;2022-08-19T14:08:19;1.80;;;1.53;;
32788;SDS011;19141;48.980;8.410;2022-08-19T14:10:45;2.20;;;1.90;;
32788;SDS011;19141;48.980;8.410;2022-08-19T14:13:12;1.93;;;1.70;;
32788;SDS011;19141;48.980;8.410;2022-08-19T14:15:40;2.08;;;1.83;;
32788;SDS011;19141;48.980;8.410;2022-08-19T14:18:06;2.05;;;1.85;;
32788;SDS011;19141;48.980;8.410;2022-08-19T14:20:34;1.93;;;1.73;;
32788;SDS011;19141;48.980;8.410;2022-08-19T14:23:00;2.67;;;2.00;;
32788;SDS011;19141;48.980;8.410;2022-08-19T14:25:27;1.70;;;1.60;;
32788;SDS011;19141;48.980;8.410;2022-08-19T14:27:54;2.42;;;2.20;;
32788;SDS011;19141;48.980;8.410;2022-08-19T14:30:23;2.72;;;2.05;;
32788;SDS011;19141;48.980;8.410;2022-08-19T14:32:52;2.55;;;2.03;;
32788;SDS011;19141;48.980;8.410;2022-08-19T14:35:17;2.28;;;2.08;;
32788;SDS011;19141;48.980;8.410;2022-08-19T14:37:44;2.30;;;2.10;;
32788;SDS011;19141;48.980;8.410;2022-08-19T14:40:10;2.67;;;2.15;;
32788;SDS011;19141;48.980;8.410;2022-08-19T14:42:37;2.70;;;2.40;;
32788;SDS011;19141;48.980;8.410;2022-08-19T14:45:02;2.58;;;2.38;;
32788;SDS011;19141;48.980;8.410;2022-08-19T14:47:30;2.30;;;2.00;;
32788;SDS011;19141;48.980;8.410;2022-08-19T14:49:55;2.28;;;1.95;;
32788;SDS011;19141;48.980;8.410;2022-08-19T14:52:21;2.72;;;2.22;;
32788;SDS011;19141;48.980;8.410;2022-08-19T14:54:47;2.47;;;2.28;;
32788;SDS011;19141;48.980;8.410;2022-08-19T14:57:13;2.45;;;2.25;;
32788;SDS011;19141;48.980;8.410;2022-08-19T14:59:40;3.47;;;2.08;;
32788;SDS011;19141;48.980;8.410;2022-08-19T15:02:09;2.30;;;2.10;;
32788;SDS011;19141;48.980;8.410;2022-08-19T15:04:35;3.25;;;2.53;;
32788;SDS011;19141;48.980;8.410;2022-08-19T15:07:00;3.60;;;3.22;;
32788;SDS011;19141;48.980;8.410;2022-08-19T15:09:29;2.90;;;2.60;;
32788;SDS011;19141;48.980;8.410;2022-08-19T15:14:24;3.10;;;2.53;;
32788;SDS011;19141;48.980;8.410;2022-08-19T15:16:49;2.63;;;2.40;;
32788;SDS011;19141;48.980;8.410;2022-08-19T15:19:15;3.42;;;2.78;;
32788;SDS011;19141;48.980;8.410;2022-08-19T15:21:40;2.40;;;2.20;;
32788;SDS011;19141;48.980;8.410;2022-08-19T15:24:06;4.03;;;3.17;;
32788;SDS011;19141;48.980;8.410;2022-08-19T15:26:31;3.20;;;2.90;;
32788;SDS011;19141;48.980;8.410;2022-08-19T15:28:57;2.83;;;2.53;;
32788;SDS011;19141;48.980;8.410;2022-08-19T15:31:24;3.72;;;3.22;;
32788;SDS011;19141;48.980;8.410;2022-08-19T15:33:52;2.88;;;2.60;;
32788;SDS011;19141;48.980;8.410;2022-08-19T15:36:22;4.03;;;3.17;;
32788;SDS011;19141;48.980;8.410;2022-08-19T15:38:49;3.08;;;2.78;;
32788;SDS011;19141;48.980;8.410;2022-08-19T15:41:22;3.03;;;2.53;;
32788;SDS011;19141;48.980;8.410;2022-08-19T15:43:53;3.38;;;2.75;;
32788;SDS011;19141;48.980;8.410;2022-08-19T15:46:22;3.38;;;2.33;;
32788;SDS011;19141;48.980;8.410;2022-08-19T15:48:50;3.85;;;2.92;;
32788;SDS011;19141;48.980;8.410;2022-08-19T15:51:17;5.78;;;3.92;;
32788;SDS011;19141;48.980;8.410;2022-08-19T15:53:43;3.70;;;2.78;;
32788;SDS011;19141;48.980;8.410;2022-08-19T15:56:09;3.97;;;2.97;;
32788;SDS011;19141;48.980;8.410;2022-08-19T15:58:34;4.15;;;3.45;;
32788;SDS011;19141;48.980;8.410;2022-08-19T16:01:18;2.97;;;2.65;;
32788;SDS011;19141;48.980;8.410;2022-08-19T16:03:57;4.20;;;3.22;;
32788;SDS011;19141;48.980;8.410;2022-08-19T16:06:43;3.17;;;2.70;;
32788;SDS011;19141;48.980;8.410;2022-08-19T16:09:11;4.85;;;2.70;;
32788;SDS011;19141;48.980;8.410;2022-08-19T16:11:37;3.67;;;2.60;;
32788;SDS011;19141;48.980;8.410;2022-08-19T16:14:02;3.15;;;2.38;;
32788;SDS011;19141;48.980;8.410;2022-08-19T16:16:31;3.38;;;2.47;;
32788;SDS011;19141;48.980;8.410;2022-08-19T16:18:59;2.80;;;2.17;;
32788;SDS011;19141;48.980;8.410;2022-08-19T16:21:27;3.65;;;2.45;;
32788;SDS011;19141;48.980;8.410;2022-08-19T16:23:57;2.67;;;2.28;;
32788;SDS011;19141;48.980;8.410;2022-08-19T16:28:55;2.88;;;2.55;;
32788;SDS011;19141;48.980;8.410;2022-08-19T16:31:24;2.63;;;2.20;;
32788;SDS011;19141;48.980;8.410;2022-08-19T16:33:50;2.67;;;2.25;;
32788;SDS011;19141;48.980;8.410;2022-08-19T16:36:16;2.67;;;2.22;;
32788;SDS011;19141;48.980;8.410;2022-08-19T16:38:42;2.28;;;2.05;;
32788;SDS011;19141;48.980;8.410;2022-08-19T16:41:10;3.03;;;2.40;;
32788;SDS011;19141;48.980;8.410;2022-08-19T16:43:38;3.10;;;2.67;;
32788;SDS011;19141;48.980;8.410;2022-08-19T16:46:05;2.83;;;2.15;;
32788;SDS011;19141;48.980;8.410;2022-08-19T16:48:32;2.15;;;1.95;;
32788;SDS011;19141;48.980;8.410;2022-08-19T16:50:58;3.15;;;2.38;;
32788;SDS011;19141;48.980;8.410;2022-08-19T16:53:25;2.80;;;2.50;;
32788;SDS011;19141;48.980;8.410;2022-08-19T16:55:56;2.70;;;2.20;;
32788;SDS011;19141;48.980;8.410;2022-08-19T16:58:23;3.75;;;2.45;;
32788;SDS011;19141;48.980;8.410;2022-08-19T17:00:50;3.70;;;2.53;;
32788;SDS011;19141;48.980;8.410;2022-08-19T17:03:18;2.58;;;2.10;;
32788;SDS011;19141;48.980;8.410;2022-08-19T17:05:48;2.90;;;2.30;;
32788;SDS011;19141;48.980;8.410;2022-08-19T17:08:16;2.65;;;2.20;;
32788;SDS011;19141;48.980;8.410;2022-08-19T17:10:42;2.78;;;2.15;;
32788;SDS011;19141;48.980;8.410;2022-08-19T17:13:09;3.13;;;2.40;;
32788;SDS011;19141;48.980;8.410;2022-08-19T17:15:35;3.25;;;2.60;;
32788;SDS011;19141;48.980;8.410;2022-08-19T17:18:01;7.22;;;2.90;;
32788;SDS011;19141;48.980;8.410;2022-08-19T17:20:29;3.60;;;2.40;;
32788;SDS011;19141;48.980;8.410;2022-08-19T17:22:56;4.13;;;3.65;;
32788;SDS011;19141;48.980;8.410;2022-08-19T17:25:23;4.97;;;3.42;;
32788;SDS011;19141;48.980;8.410;2022-08-19T17:27:49;3.95;;;3.03;;
32788;SDS011;19141;48.980;8.410;2022-08-19T17:30:16;3.27;;;2.70;;
32788;SDS011;19141;48.980;8.410;2022-08-19T17:32:42;4.60;;;3.28;;
32788;SDS011;19141;48.980;8.410;2022-08-19T17:35:08;4.20;;;3.38;;
32788;SDS011;19141;48.980;8.410;2022-08-19T17:37:34;4.30;;;3.42;;
32788;SDS011;19141;48.980;8.410;2022-08-19T17:40:05;4.65;;;3.50;;
32788;SDS011;19141;48.980;8.410;2022-08-19T17:42:33;6.03;;;3.90;;
32788;SDS011;19141;48.980;8.410;2022-08-19T17:45:00;3.85;;;3.45;;
32788;SDS011;19141;48.980;8.410;2022-08-19T17:47:26;4.22;;;3.83;;
32788;SDS011;19141;48.980;8.410;2022-08-19T17:49:52;4.47;;;3.45;;
32788;SDS011;19141;48.980;8.410;2022-08-19T17:52:18;4.93;;;4.05;;
32788;SDS011;19141;48.980;8.410;2022-08-19T17:54:43;5.05;;;3.97;;
32788;SDS011;19141;48.980;8.410;2022-08-19T17:57:09;4.57;;;3.88;;
32788;SDS011;19141;48.980;8.410;2022-08-19T17:59:35;3.95;;;3.40;;
32788;SDS011;19141;48.980;8.410;2022-08-19T18:02:05;6.03;;;4.40;;
32788;SDS011;19141;48.980;8.410;2022-08-19T18:04:32;4.13;;;3.55;;
32788;SDS011;19141;48.980;8.410;2022-08-19T18:06:58;3.70;;;3.30;;
32788;SDS011;19141;48.980;8.410;2022-08-19T18:09:28;3.75;;;3.22;;
32788;SDS011;19141;48.980;8.410;2022-08-19T18:11:56;4.22;;;3.08;;
32788;SDS011;19141;48.980;8.410;2022-08-19T18:14:23;3.45;;;2.80;;
32788;SDS011;19141;48.980;8.410;2022-08-19T18:16:52;3.42;;;2.60;;
32788;SDS011;19141;48.980;8.410;2022-08-19T18:19:21;4.10;;;2.90;;
32788;SDS011;19141;48.980;8.410;2022-08-19T18:21:47;2.78;;;2.50;;
32788;SDS011;19141;48.980;8.410;2022-08-19T18:24:13;4.20;;;3.30;;
32788;SDS011;19141;48.980;8.410;2022-08-19T18:26:39;5.97;;;2.70;;
32788;SDS011;19141;48.980;8.410;2022-08-19T18:29:05;3.38;;;2.70;;
32788;SDS011;19141;48.980;8.410;2022-08-19T18:31:31;3.55;;;2.70;;
32788;SDS011;19141;48.980;8.410;2022-08-19T18:33:57;3.15;;;2.60;;
32788;SDS011;19141;48.980;8.410;2022-08-19T18:36:22;3.35;;;2.63;;
32788;SDS011;19141;48.980;8.410;2022-08-19T18:38:48;2.95;;;2.60;;
32788;SDS011;19141;48.980;8.410;2022-08-19T18:41:32;3.40;;;2.40;;
32788;SDS011;19141;48.980;8.410;2022-08-19T18:44:16;3.78;;;2.55;;
32788;SDS011;19141;48.980;8.410;2022-08-19T18:47:00;3.97;;;2.83;;
32788;SDS011;19141;48.980;8.410;2022-08-19T18:49:44;3.53;;;2.63;;
32788;SDS011;19141;48.980;8.410;2022-08-19T18:52:09;2.88;;;2.30;;
32788;SDS011;19141;48.980;8.410;2022-08-19T18:54:35;2.40;;;1.90;;
32788;SDS011;19141;48.980;8.410;2022-08-19T18:57:00;3.92;;;2.63;;
32788;SDS011;19141;48.980;8.410;2022-08-19T18:59:29;2.95;;;2.40;;
32788;SDS011;19141;48.980;8.410;2022-08-19T19:01:56;3.10;;;2.50;;
32788;SDS011;19141;48.980;8.410;2022-08-19T19:04:28;2.92;;;2.58;;
32788;SDS011;19141;48.980;8.410;2022-08-19T19:06:56;3.28;;;2.63;;
32788;SDS011;19141;48.980;8.410;2022-08-19T19:09:22;2.63;;;2.22;;
32788;SDS011;19141;48.980;8.410;2022-08-19T19:11:50;2.65;;;2.00;;
32788;SDS011;19141;48.980;8.410;2022-08-19T19:14:27;2.88;;;2.08;;
32788;SDS011;19141;48.980;8.410;2022-08-19T19:16:56;4.40;;;2.33;;
32788;SDS011;19141;48.980;8.410;2022-08-19T19:19:26;2.17;;;1.90;;
32788;SDS011;19141;48.980;8.410;2022-08-19T19:21:53;2.78;;;2.08;;
32788;SDS011;19141;48.980;8.410;2022-08-19T19:24:20;2.13;;;1.80;;
32788;SDS011;19141;48.980;8.410;2022-08-19T19:26:49;2.45;;;1.85;;
32788;SDS011;19141;48.980;8.410;2022-08-19T19:29:15;2.90;;;1.98;;
32788;SDS011;19141;48.980;8.410;2022-08-19T19:31:42;1.77;;;1.50;;
32788;SDS011;19141;48.980;8.410;2022-08-19T19:34:09;2.60;;;2.17;;